sensor_id;sensor_type;location;lat;lon;timestamp;P1;durP1;ratioP1;P2;durP2;ratioP2
36185;SDS011;22228;53.222;7.446;2023-02-23T00:00:49;81.17;;;39.33;;
36185;SDS011;22228;53.222;7.446;2023-02-23T00:03:10;81.87;;;39.73;;
36185;SDS011;22228;53.222;7.446;2023-02-23T00:05:31;82.83;;;41.20;;
36185;SDS011;22228;53.222;7.446;2023-02-23T00:07:55;85.90;;;41.93;;
36185;SDS011;22228;53.222;7.446;2023-02-23T00:10:18;82.83;;;40.27;;
36185;SDS011;22228;53.222;7.446;2023-02-23T00:12:39;81.40;;;38.70;;
36185;SDS011;22228;53.222;7.446;2023-02-23T00:15:02;81.20;;;40.77;;
36185;SDS011;22228;53.222;7.446;2023-02-23T00:17:22;82.63;;;40.43;;
36185;SDS011;22228;53.222;7.446;2023-02-23T00:19:42;81.93;;;38.00;;
36185;SDS011;22228;53.222;7.446;2023-02-23T00:22:06;81.93;;;41.03;;
36185;SDS011;22228;53.222;7.446;2023-02-23T00:24:26;77.97;;;39.07;;
36185;SDS011;22228;53.222;7.446;2023-02-23T00:26:49;81.40;;;40.07;;
36185;SDS011;22228;53.222;7.446;2023-02-23T00:29:10;84.10;;;40.80;;
36185;SDS011;22228;53.222;7.446;2023-02-23T00:31:34;79.13;;;38.37;;
36185;SDS011;22228;53.222;7.446;2023-02-23T00:33:57;80.83;;;39.60;;
36185;SDS011;22228;53.222;7.446;2023-02-23T00:36:19;85.17;;;39.77;;
36185;SDS011;22228;53.222;7.446;2023-02-23T00:38:41;81.67;;;40.53;;
36185;SDS011;22228;53.222;7.446;2023-02-23T00:41:04;75.97;;;39.33;;
36185;SDS011;22228;53.222;7.446;2023-02-23T00:43:27;79.03;;;38.90;;
36185;SDS011;22228;53.222;7.446;2023-02-23T00:45:47;75.50;;;38.10;;
36185;SDS011;22228;53.222;7.446;2023-02-23T00:48:08;80.20;;;40.93;;
36185;SDS011;22228;53.222;7.446;2023-02-23T00:50:29;76.47;;;40.90;;
36185;SDS011;22228;53.222;7.446;2023-02-23T00:52:55;85.27;;;41.57;;
36185;SDS011;22228;53.222;7.446;2023-02-23T00:55:17;81.73;;;42.67;;
36185;SDS011;22228;53.222;7.446;2023-02-23T00:57:38;79.40;;;41.13;;
36185;SDS011;22228;53.222;7.446;2023-02-23T00:59:59;79.30;;;39.93;;
36185;SDS011;22228;53.222;7.446;2023-02-23T01:02:30;84.60;;;41.13;;
36185;SDS011;22228;53.222;7.446;2023-02-23T01:04:51;87.53;;;40.13;;
36185;SDS011;22228;53.222;7.446;2023-02-23T01:07:11;86.67;;;41.23;;
36185;SDS011;22228;53.222;7.446;2023-02-23T01:09:32;80.60;;;40.23;;
36185;SDS011;22228;53.222;7.446;2023-02-23T01:11:53;82.30;;;40.13;;
36185;SDS011;22228;53.222;7.446;2023-02-23T01:14:14;85.80;;;41.20;;
36185;SDS011;22228;53.222;7.446;2023-02-23T04:01:51;85.43;;;45.37;;
36185;SDS011;22228;53.222;7.446;2023-02-23T04:04:32;79.00;;;44.90;;
36185;SDS011;22228;53.222;7.446;2023-02-23T04:07:11;86.90;;;44.37;;
36185;SDS011;22228;53.222;7.446;2023-02-23T04:09:54;85.73;;;44.10;;
36185;SDS011;22228;53.222;7.446;2023-02-23T04:12:33;82.90;;;44.20;;
36185;SDS011;22228;53.222;7.446;2023-02-23T04:15:22;84.87;;;44.53;;
36185;SDS011;22228;53.222;7.446;2023-02-23T04:17:47;88.17;;;45.30;;
36185;SDS011;22228;53.222;7.446;2023-02-23T04:20:08;83.47;;;43.97;;
36185;SDS011;22228;53.222;7.446;2023-02-23T04:22:40;77.77;;;43.43;;
36185;SDS011;22228;53.222;7.446;2023-02-23T04:25:01;77.47;;;43.00;;
36185;SDS011;22228;53.222;7.446;2023-02-23T04:27:24;80.60;;;42.87;;
36185;SDS011;22228;53.222;7.446;2023-02-23T04:29:44;88.43;;;44.87;;
36185;SDS011;22228;53.222;7.446;2023-02-23T04:32:06;80.83;;;42.30;;
36185;SDS011;22228;53.222;7.446;2023-02-23T04:34:32;81.80;;;43.20;;
36185;SDS011;22228;53.222;7.446;2023-02-23T04:36:52;77.73;;;43.33;;
36185;SDS011;22228;53.222;7.446;2023-02-23T04:39:13;86.40;;;44.67;;
36185;SDS011;22228;53.222;7.446;2023-02-23T04:41:33;91.50;;;45.80;;
36185;SDS011;22228;53.222;7.446;2023-02-23T04:43:54;91.00;;;45.57;;
36185;SDS011;22228;53.222;7.446;2023-02-23T04:46:15;88.13;;;44.73;;
36185;SDS011;22228;53.222;7.446;2023-02-23T04:48:35;84.07;;;44.50;;
36185;SDS011;22228;53.222;7.446;2023-02-23T04:50:57;88.63;;;46.80;;
36185;SDS011;22228;53.222;7.446;2023-02-23T04:53:17;89.63;;;45.87;;
36185;SDS011;22228;53.222;7.446;2023-02-23T04:55:38;84.97;;;44.67;;
36185;SDS011;22228;53.222;7.446;2023-02-23T04:57:59;86.70;;;46.20;;
36185;SDS011;22228;53.222;7.446;2023-02-23T05:00:20;81.87;;;43.50;;
36185;SDS011;22228;53.222;7.446;2023-02-23T05:02:41;93.70;;;47.17;;
36185;SDS011;22228;53.222;7.446;2023-02-23T05:05:01;86.20;;;45.23;;
36185;SDS011;22228;53.222;7.446;2023-02-23T05:07:24;85.57;;;43.53;;
36185;SDS011;22228;53.222;7.446;2023-02-23T05:09:44;81.33;;;44.47;;
36185;SDS011;22228;53.222;7.446;2023-02-23T05:12:04;83.67;;;44.67;;
36185;SDS011;22228;53.222;7.446;2023-02-23T05:14:25;83.17;;;44.30;;
36185;SDS011;22228;53.222;7.446;2023-02-23T05:16:46;80.47;;;42.87;;
36185;SDS011;22228;53.222;7.446;2023-02-23T05:19:07;82.57;;;43.67;;
36185;SDS011;22228;53.222;7.446;2023-02-23T05:21:28;85.63;;;45.73;;
36185;SDS011;22228;53.222;7.446;2023-02-23T05:23:50;85.80;;;44.60;;
36185;SDS011;22228;53.222;7.446;2023-02-23T05:26:11;85.60;;;45.33;;
36185;SDS011;22228;53.222;7.446;2023-02-23T05:28:33;83.67;;;44.70;;
36185;SDS011;22228;53.222;7.446;2023-02-23T05:30:54;76.00;;;43.40;;
36185;SDS011;22228;53.222;7.446;2023-02-23T05:33:15;79.87;;;44.70;;
36185;SDS011;22228;53.222;7.446;2023-02-23T05:35:39;86.50;;;45.77;;
36185;SDS011;22228;53.222;7.446;2023-02-23T05:38:00;80.53;;;44.77;;
36185;SDS011;22228;53.222;7.446;2023-02-23T05:40:22;85.43;;;47.67;;
36185;SDS011;22228;53.222;7.446;2023-02-23T05:42:42;81.63;;;44.43;;
36185;SDS011;22228;53.222;7.446;2023-02-23T05:45:06;92.30;;;48.00;;
36185;SDS011;22228;53.222;7.446;2023-02-23T05:47:27;88.33;;;46.33;;
36185;SDS011;22228;53.222;7.446;2023-02-23T05:49:47;91.60;;;45.70;;
36185;SDS011;22228;53.222;7.446;2023-02-23T05:52:07;93.80;;;48.00;;
36185;SDS011;22228;53.222;7.446;2023-02-23T05:54:28;92.37;;;47.50;;
36185;SDS011;22228;53.222;7.446;2023-02-23T05:56:50;98.13;;;48.87;;
36185;SDS011;22228;53.222;7.446;2023-02-23T05:59:11;100.00;;;48.30;;
36185;SDS011;22228;53.222;7.446;2023-02-23T06:01:32;89.97;;;47.23;;
36185;SDS011;22228;53.222;7.446;2023-02-23T06:03:52;97.50;;;50.10;;
36185;SDS011;22228;53.222;7.446;2023-02-23T06:06:13;106.60;;;50.43;;
36185;SDS011;22228;53.222;7.446;2023-02-23T06:08:34;99.73;;;51.30;;
36185;SDS011;22228;53.222;7.446;2023-02-23T06:10:54;105.77;;;51.77;;
36185;SDS011;22228;53.222;7.446;2023-02-23T06:13:16;102.70;;;51.47;;
36185;SDS011;22228;53.222;7.446;2023-02-23T06:15:36;104.70;;;52.27;;
36185;SDS011;22228;53.222;7.446;2023-02-23T06:17:57;105.20;;;49.50;;
36185;SDS011;22228;53.222;7.446;2023-02-23T06:20:18;106.93;;;50.87;;
36185;SDS011;22228;53.222;7.446;2023-02-23T06:22:38;108.47;;;48.67;;
36185;SDS011;22228;53.222;7.446;2023-02-23T06:25:00;114.43;;;49.40;;
36185;SDS011;22228;53.222;7.446;2023-02-23T06:27:23;107.07;;;49.17;;
36185;SDS011;22228;53.222;7.446;2023-02-23T06:29:45;108.27;;;49.33;;
36185;SDS011;22228;53.222;7.446;2023-02-23T06:32:06;102.53;;;45.97;;
36185;SDS011;22228;53.222;7.446;2023-02-23T06:34:26;101.80;;;46.73;;
36185;SDS011;22228;53.222;7.446;2023-02-23T06:36:47;102.17;;;47.87;;
36185;SDS011;22228;53.222;7.446;2023-02-23T06:39:08;104.90;;;47.87;;
36185;SDS011;22228;53.222;7.446;2023-02-23T06:41:29;107.47;;;45.80;;
36185;SDS011;22228;53.222;7.446;2023-02-23T06:43:51;99.80;;;45.43;;
36185;SDS011;22228;53.222;7.446;2023-02-23T06:46:13;96.37;;;41.73;;
36185;SDS011;22228;53.222;7.446;2023-02-23T06:48:34;86.80;;;39.07;;
36185;SDS011;22228;53.222;7.446;2023-02-23T06:50:56;96.40;;;42.57;;
36185;SDS011;22228;53.222;7.446;2023-02-23T06:53:17;97.73;;;43.17;;
36185;SDS011;22228;53.222;7.446;2023-02-23T06:55:38;112.50;;;45.00;;
36185;SDS011;22228;53.222;7.446;2023-02-23T06:57:58;117.40;;;48.03;;
36185;SDS011;22228;53.222;7.446;2023-02-23T07:00:19;131.57;;;48.27;;
36185;SDS011;22228;53.222;7.446;2023-02-23T07:02:41;117.13;;;47.97;;
36185;SDS011;22228;53.222;7.446;2023-02-23T07:05:02;127.57;;;51.30;;
36185;SDS011;22228;53.222;7.446;2023-02-23T07:07:26;130.77;;;49.60;;
36185;SDS011;22228;53.222;7.446;2023-02-23T07:09:46;134.60;;;51.10;;
36185;SDS011;22228;53.222;7.446;2023-02-23T07:12:07;129.63;;;50.27;;
36185;SDS011;22228;53.222;7.446;2023-02-23T07:14:29;128.00;;;51.13;;
36185;SDS011;22228;53.222;7.446;2023-02-23T07:16:50;141.53;;;52.23;;
36185;SDS011;22228;53.222;7.446;2023-02-23T07:19:12;134.50;;;51.80;;
36185;SDS011;22228;53.222;7.446;2023-02-23T07:21:33;130.30;;;51.43;;
36185;SDS011;22228;53.222;7.446;2023-02-23T07:23:54;139.30;;;53.00;;
36185;SDS011;22228;53.222;7.446;2023-02-23T07:26:14;119.07;;;49.80;;
36185;SDS011;22228;53.222;7.446;2023-02-23T07:28:35;118.20;;;47.93;;
36185;SDS011;22228;53.222;7.446;2023-02-23T07:30:56;120.07;;;48.27;;
36185;SDS011;22228;53.222;7.446;2023-02-23T07:33:16;122.83;;;50.33;;
36185;SDS011;22228;53.222;7.446;2023-02-23T07:35:38;118.73;;;47.13;;
36185;SDS011;22228;53.222;7.446;2023-02-23T07:38:09;109.87;;;46.87;;
36185;SDS011;22228;53.222;7.446;2023-02-23T07:40:30;122.63;;;48.50;;
36185;SDS011;22228;53.222;7.446;2023-02-23T07:42:50;117.90;;;46.13;;
36185;SDS011;22228;53.222;7.446;2023-02-23T07:45:12;114.00;;;48.43;;
36185;SDS011;22228;53.222;7.446;2023-02-23T07:47:33;118.90;;;49.47;;
36185;SDS011;22228;53.222;7.446;2023-02-23T07:49:56;116.60;;;49.03;;
36185;SDS011;22228;53.222;7.446;2023-02-23T07:52:19;114.80;;;48.83;;
36185;SDS011;22228;53.222;7.446;2023-02-23T07:54:40;106.20;;;46.90;;
36185;SDS011;22228;53.222;7.446;2023-02-23T07:57:01;111.17;;;48.83;;
36185;SDS011;22228;53.222;7.446;2023-02-23T07:59:21;105.90;;;45.37;;
36185;SDS011;22228;53.222;7.446;2023-02-23T08:01:42;110.67;;;47.87;;
36185;SDS011;22228;53.222;7.446;2023-02-23T08:04:03;113.67;;;46.93;;
36185;SDS011;22228;53.222;7.446;2023-02-23T08:06:24;102.23;;;46.43;;
36185;SDS011;22228;53.222;7.446;2023-02-23T08:08:46;102.73;;;45.57;;
36185;SDS011;22228;53.222;7.446;2023-02-23T08:11:08;105.63;;;47.10;;
36185;SDS011;22228;53.222;7.446;2023-02-23T08:13:29;107.03;;;45.83;;
36185;SDS011;22228;53.222;7.446;2023-02-23T08:15:51;98.53;;;46.37;;
36185;SDS011;22228;53.222;7.446;2023-02-23T08:18:11;103.83;;;41.63;;
36185;SDS011;22228;53.222;7.446;2023-02-23T08:20:32;105.10;;;44.03;;
36185;SDS011;22228;53.222;7.446;2023-02-23T08:22:53;91.60;;;41.40;;
36185;SDS011;22228;53.222;7.446;2023-02-23T08:25:15;91.67;;;43.17;;
36185;SDS011;22228;53.222;7.446;2023-02-23T08:27:36;93.80;;;42.30;;
36185;SDS011;22228;53.222;7.446;2023-02-23T08:29:57;92.13;;;41.97;;
36185;SDS011;22228;53.222;7.446;2023-02-23T08:32:18;89.03;;;40.20;;
36185;SDS011;22228;53.222;7.446;2023-02-23T08:34:40;90.67;;;39.37;;
36185;SDS011;22228;53.222;7.446;2023-02-23T08:37:01;88.97;;;39.43;;
36185;SDS011;22228;53.222;7.446;2023-02-23T08:39:23;90.20;;;39.50;;
36185;SDS011;22228;53.222;7.446;2023-02-23T08:41:45;79.17;;;37.67;;
36185;SDS011;22228;53.222;7.446;2023-02-23T08:44:06;81.27;;;36.60;;
36185;SDS011;22228;53.222;7.446;2023-02-23T08:46:26;78.67;;;36.50;;
36185;SDS011;22228;53.222;7.446;2023-02-23T08:48:59;71.70;;;35.27;;
36185;SDS011;22228;53.222;7.446;2023-02-23T08:51:19;75.70;;;34.70;;
36185;SDS011;22228;53.222;7.446;2023-02-23T08:53:40;72.93;;;34.93;;
36185;SDS011;22228;53.222;7.446;2023-02-23T08:56:01;74.10;;;34.67;;
36185;SDS011;22228;53.222;7.446;2023-02-23T08:58:25;72.70;;;34.07;;
36185;SDS011;22228;53.222;7.446;2023-02-23T09:00:46;69.40;;;35.40;;
36185;SDS011;22228;53.222;7.446;2023-02-23T09:03:07;65.33;;;33.27;;
36185;SDS011;22228;53.222;7.446;2023-02-23T09:05:28;61.97;;;32.13;;
36185;SDS011;22228;53.222;7.446;2023-02-23T09:07:48;58.30;;;31.20;;
36185;SDS011;22228;53.222;7.446;2023-02-23T09:10:10;55.90;;;31.23;;
36185;SDS011;22228;53.222;7.446;2023-02-23T09:12:32;60.50;;;31.10;;
36185;SDS011;22228;53.222;7.446;2023-02-23T09:14:54;61.17;;;30.27;;
36185;SDS011;22228;53.222;7.446;2023-02-23T09:17:15;56.07;;;29.83;;
36185;SDS011;22228;53.222;7.446;2023-02-23T09:19:35;58.97;;;30.30;;
36185;SDS011;22228;53.222;7.446;2023-02-23T09:21:56;52.97;;;28.23;;
36185;SDS011;22228;53.222;7.446;2023-02-23T09:26:59;58.63;;;29.83;;
36185;SDS011;22228;53.222;7.446;2023-02-23T09:29:26;54.95;;;28.40;;
36185;SDS011;22228;53.222;7.446;2023-02-23T09:32:07;60.30;;;28.97;;
36185;SDS011;22228;53.222;7.446;2023-02-23T09:34:28;64.27;;;32.67;;
36185;SDS011;22228;53.222;7.446;2023-02-23T09:36:49;66.83;;;33.57;;
36185;SDS011;22228;53.222;7.446;2023-02-23T09:39:10;62.97;;;31.87;;
36185;SDS011;22228;53.222;7.446;2023-02-23T09:41:44;65.90;;;35.00;;
36185;SDS011;22228;53.222;7.446;2023-02-23T09:44:14;72.17;;;33.77;;
36185;SDS011;22228;53.222;7.446;2023-02-23T09:46:42;69.53;;;32.77;;
36185;SDS011;22228;53.222;7.446;2023-02-23T09:49:10;67.77;;;34.60;;
36185;SDS011;22228;53.222;7.446;2023-02-23T09:51:36;65.97;;;32.57;;
36185;SDS011;22228;53.222;7.446;2023-02-23T09:54:04;75.17;;;34.87;;
36185;SDS011;22228;53.222;7.446;2023-02-23T09:56:30;76.10;;;34.13;;
36185;SDS011;22228;53.222;7.446;2023-02-23T09:58:55;69.53;;;34.77;;
36185;SDS011;22228;53.222;7.446;2023-02-23T10:04:13;79.10;;;35.60;;
36185;SDS011;22228;53.222;7.446;2023-02-23T10:06:39;82.97;;;37.30;;
36185;SDS011;22228;53.222;7.446;2023-02-23T10:09:07;86.23;;;38.17;;
36185;SDS011;22228;53.222;7.446;2023-02-23T10:11:36;84.70;;;37.03;;
36185;SDS011;22228;53.222;7.446;2023-02-23T10:14:06;82.80;;;36.70;;
36185;SDS011;22228;53.222;7.446;2023-02-23T10:16:37;93.53;;;38.23;;
36185;SDS011;22228;53.222;7.446;2023-02-23T10:19:06;86.50;;;38.50;;
36185;SDS011;22228;53.222;7.446;2023-02-23T10:21:38;89.03;;;39.20;;
36185;SDS011;22228;53.222;7.446;2023-02-23T10:24:01;96.50;;;40.67;;
36185;SDS011;22228;53.222;7.446;2023-02-23T10:26:25;99.37;;;40.77;;
36185;SDS011;22228;53.222;7.446;2023-02-23T10:28:49;95.23;;;40.20;;
36185;SDS011;22228;53.222;7.446;2023-02-23T10:31:18;95.77;;;41.77;;
36185;SDS011;22228;53.222;7.446;2023-02-23T10:33:46;97.73;;;42.13;;
36185;SDS011;22228;53.222;7.446;2023-02-23T10:36:11;98.90;;;40.93;;
36185;SDS011;22228;53.222;7.446;2023-02-23T10:38:35;101.73;;;42.40;;
36185;SDS011;22228;53.222;7.446;2023-02-23T10:40:55;91.10;;;39.90;;
36185;SDS011;22228;53.222;7.446;2023-02-23T10:43:16;91.37;;;40.63;;
36185;SDS011;22228;53.222;7.446;2023-02-23T10:45:37;85.20;;;37.93;;
36185;SDS011;22228;53.222;7.446;2023-02-23T10:48:03;90.50;;;40.63;;
36185;SDS011;22228;53.222;7.446;2023-02-23T10:50:26;97.83;;;41.40;;
36185;SDS011;22228;53.222;7.446;2023-02-23T10:52:49;94.93;;;40.73;;
36185;SDS011;22228;53.222;7.446;2023-02-23T10:55:19;88.37;;;40.07;;
36185;SDS011;22228;53.222;7.446;2023-02-23T10:57:43;79.17;;;38.43;;
36185;SDS011;22228;53.222;7.446;2023-02-23T11:00:22;83.40;;;39.63;;
36185;SDS011;22228;53.222;7.446;2023-02-23T11:02:49;84.10;;;39.43;;
36185;SDS011;22228;53.222;7.446;2023-02-23T11:05:25;83.40;;;39.17;;
36185;SDS011;22228;53.222;7.446;2023-02-23T11:07:50;82.30;;;37.80;;
36185;SDS011;22228;53.222;7.446;2023-02-23T11:10:28;75.57;;;35.83;;
36185;SDS011;22228;53.222;7.446;2023-02-23T11:12:49;70.13;;;34.90;;
36185;SDS011;22228;53.222;7.446;2023-02-23T11:15:19;70.40;;;31.37;;
36185;SDS011;22228;53.222;7.446;2023-02-23T11:17:45;67.43;;;30.87;;
36185;SDS011;22228;53.222;7.446;2023-02-23T11:20:06;56.00;;;27.07;;
36185;SDS011;22228;53.222;7.446;2023-02-23T11:22:38;55.67;;;24.87;;
36185;SDS011;22228;53.222;7.446;2023-02-23T11:25:03;48.53;;;24.00;;
36185;SDS011;22228;53.222;7.446;2023-02-23T11:27:34;52.93;;;25.80;;
36185;SDS011;22228;53.222;7.446;2023-02-23T11:29:55;48.47;;;24.17;;
36185;SDS011;22228;53.222;7.446;2023-02-23T11:32:18;43.83;;;22.70;;
36185;SDS011;22228;53.222;7.446;2023-02-23T11:34:41;47.27;;;21.67;;
36185;SDS011;22228;53.222;7.446;2023-02-23T11:37:03;44.43;;;21.80;;
36185;SDS011;22228;53.222;7.446;2023-02-23T11:39:26;50.70;;;22.67;;
36185;SDS011;22228;53.222;7.446;2023-02-23T11:41:48;44.57;;;22.83;;
36185;SDS011;22228;53.222;7.446;2023-02-23T11:44:23;46.40;;;22.23;;
36185;SDS011;22228;53.222;7.446;2023-02-23T11:46:44;43.40;;;22.40;;
36185;SDS011;22228;53.222;7.446;2023-02-23T11:49:05;44.73;;;22.53;;
36185;SDS011;22228;53.222;7.446;2023-02-23T11:51:28;43.03;;;22.33;;
36185;SDS011;22228;53.222;7.446;2023-02-23T11:53:50;44.00;;;22.10;;
36185;SDS011;22228;53.222;7.446;2023-02-23T11:56:11;47.40;;;23.63;;
36185;SDS011;22228;53.222;7.446;2023-02-23T11:58:42;45.17;;;22.77;;
36185;SDS011;22228;53.222;7.446;2023-02-23T12:01:06;51.30;;;23.07;;
36185;SDS011;22228;53.222;7.446;2023-02-23T12:03:32;50.47;;;24.03;;
36185;SDS011;22228;53.222;7.446;2023-02-23T12:05:53;50.33;;;23.77;;
36185;SDS011;22228;53.222;7.446;2023-02-23T12:08:17;57.77;;;24.93;;
36185;SDS011;22228;53.222;7.446;2023-02-23T12:10:46;54.57;;;25.30;;
36185;SDS011;22228;53.222;7.446;2023-02-23T12:13:11;51.93;;;23.33;;
36185;SDS011;22228;53.222;7.446;2023-02-23T12:15:46;51.77;;;25.60;;
36185;SDS011;22228;53.222;7.446;2023-02-23T12:18:17;55.20;;;25.27;;
36185;SDS011;22228;53.222;7.446;2023-02-23T12:20:45;54.17;;;25.37;;
36185;SDS011;22228;53.222;7.446;2023-02-23T12:23:12;53.17;;;24.90;;
36185;SDS011;22228;53.222;7.446;2023-02-23T12:25:37;49.47;;;24.93;;
36185;SDS011;22228;53.222;7.446;2023-02-23T12:28:08;51.43;;;25.03;;
36185;SDS011;22228;53.222;7.446;2023-02-23T12:30:36;57.83;;;24.00;;
36185;SDS011;22228;53.222;7.446;2023-02-23T12:33:03;57.43;;;26.57;;
36185;SDS011;22228;53.222;7.446;2023-02-23T12:35:29;58.83;;;25.57;;
36185;SDS011;22228;53.222;7.446;2023-02-23T12:37:59;53.30;;;23.17;;
36185;SDS011;22228;53.222;7.446;2023-02-23T12:40:25;50.20;;;23.63;;
36185;SDS011;22228;53.222;7.446;2023-02-23T12:42:51;48.87;;;23.57;;
36185;SDS011;22228;53.222;7.446;2023-02-23T12:45:20;57.63;;;24.83;;
36185;SDS011;22228;53.222;7.446;2023-02-23T12:47:45;57.80;;;24.53;;
36185;SDS011;22228;53.222;7.446;2023-02-23T12:50:12;51.50;;;22.87;;
36185;SDS011;22228;53.222;7.446;2023-02-23T12:52:42;50.20;;;22.50;;
36185;SDS011;22228;53.222;7.446;2023-02-23T12:55:08;48.83;;;23.33;;
36185;SDS011;22228;53.222;7.446;2023-02-23T12:57:31;51.83;;;22.63;;
36185;SDS011;22228;53.222;7.446;2023-02-23T13:00:00;47.60;;;21.80;;
36185;SDS011;22228;53.222;7.446;2023-02-23T13:02:43;45.10;;;22.37;;
36185;SDS011;22228;53.222;7.446;2023-02-23T13:05:14;39.10;;;20.17;;
36185;SDS011;22228;53.222;7.446;2023-02-23T13:07:41;38.57;;;19.73;;
36185;SDS011;22228;53.222;7.446;2023-02-23T13:10:08;41.53;;;20.97;;
36185;SDS011;22228;53.222;7.446;2023-02-23T13:12:43;43.50;;;20.60;;
36185;SDS011;22228;53.222;7.446;2023-02-23T13:15:13;38.50;;;20.40;;
36185;SDS011;22228;53.222;7.446;2023-02-23T13:17:42;37.50;;;20.00;;
36185;SDS011;22228;53.222;7.446;2023-02-23T13:20:11;36.50;;;19.63;;
36185;SDS011;22228;53.222;7.446;2023-02-23T13:22:39;43.13;;;20.83;;
36185;SDS011;22228;53.222;7.446;2023-02-23T13:25:09;43.97;;;20.33;;
36185;SDS011;22228;53.222;7.446;2023-02-23T13:27:45;46.27;;;21.93;;
36185;SDS011;22228;53.222;7.446;2023-02-23T13:30:11;43.53;;;21.33;;
36185;SDS011;22228;53.222;7.446;2023-02-23T13:32:34;46.33;;;21.63;;
36185;SDS011;22228;53.222;7.446;2023-02-23T13:34:56;49.07;;;22.77;;
36185;SDS011;22228;53.222;7.446;2023-02-23T13:37:21;47.83;;;22.67;;
36185;SDS011;22228;53.222;7.446;2023-02-23T13:39:47;62.70;;;23.87;;
36185;SDS011;22228;53.222;7.446;2023-02-23T13:42:29;63.43;;;25.40;;
36185;SDS011;22228;53.222;7.446;2023-02-23T13:44:57;56.73;;;24.50;;
36185;SDS011;22228;53.222;7.446;2023-02-23T13:47:33;64.60;;;27.37;;
36185;SDS011;22228;53.222;7.446;2023-02-23T13:50:03;71.43;;;28.90;;
36185;SDS011;22228;53.222;7.446;2023-02-23T13:52:38;74.60;;;28.77;;
36185;SDS011;22228;53.222;7.446;2023-02-23T13:55:00;79.67;;;29.13;;
36185;SDS011;22228;53.222;7.446;2023-02-23T13:57:22;83.97;;;30.43;;
36185;SDS011;22228;53.222;7.446;2023-02-23T13:59:44;87.07;;;30.50;;
36185;SDS011;22228;53.222;7.446;2023-02-23T14:02:18;85.03;;;31.20;;
36185;SDS011;22228;53.222;7.446;2023-02-23T14:04:51;56.33;;;20.63;;
36185;SDS011;22228;53.222;7.446;2023-02-23T14:07:15;31.67;;;10.77;;
36185;SDS011;22228;53.222;7.446;2023-02-23T14:09:52;31.07;;;8.00;;
36185;SDS011;22228;53.222;7.446;2023-02-23T14:12:15;25.20;;;5.83;;
36185;SDS011;22228;53.222;7.446;2023-02-23T14:14:42;29.53;;;7.07;;
36185;SDS011;22228;53.222;7.446;2023-02-23T14:17:11;28.67;;;8.07;;
36185;SDS011;22228;53.222;7.446;2023-02-23T14:20:15;35.83;;;8.33;;
36185;SDS011;22228;53.222;7.446;2023-02-23T14:25:44;43.00;;;9.77;;
36185;SDS011;22228;53.222;7.446;2023-02-23T14:28:20;43.00;;;10.97;;
36185;SDS011;22228;53.222;7.446;2023-02-23T14:30:43;42.13;;;9.17;;
36185;SDS011;22228;53.222;7.446;2023-02-23T14:33:10;45.97;;;9.57;;
36185;SDS011;22228;53.222;7.446;2023-02-23T14:35:56;50.00;;;10.07;;
36185;SDS011;22228;53.222;7.446;2023-02-23T14:40:59;40.60;;;10.53;;
36185;SDS011;22228;53.222;7.446;2023-02-23T14:43:40;36.33;;;8.77;;
36185;SDS011;22228;53.222;7.446;2023-02-23T14:46:03;32.17;;;7.53;;
36185;SDS011;22228;53.222;7.446;2023-02-23T14:48:27;35.00;;;7.43;;
36185;SDS011;22228;53.222;7.446;2023-02-23T14:50:48;37.03;;;7.63;;
36185;SDS011;22228;53.222;7.446;2023-02-23T14:53:12;39.50;;;7.23;;
36185;SDS011;22228;53.222;7.446;2023-02-23T14:55:39;33.33;;;7.60;;
36185;SDS011;22228;53.222;7.446;2023-02-23T14:58:17;38.70;;;9.63;;
36185;SDS011;22228;53.222;7.446;2023-02-23T15:00:41;27.33;;;8.20;;
36185;SDS011;22228;53.222;7.446;2023-02-23T15:03:04;31.80;;;6.60;;
36185;SDS011;22228;53.222;7.446;2023-02-23T15:05:27;39.50;;;7.20;;
36185;SDS011;22228;53.222;7.446;2023-02-23T15:07:48;37.40;;;8.57;;
36185;SDS011;22228;53.222;7.446;2023-02-23T15:10:19;44.20;;;10.65;;
36185;SDS011;22228;53.222;7.446;2023-02-23T15:12:44;35.73;;;8.03;;
36185;SDS011;22228;53.222;7.446;2023-02-23T15:15:06;32.07;;;8.00;;
36185;SDS011;22228;53.222;7.446;2023-02-23T15:17:36;40.83;;;9.40;;
36185;SDS011;22228;53.222;7.446;2023-02-23T15:20:00;34.17;;;7.53;;
36185;SDS011;22228;53.222;7.446;2023-02-23T15:22:24;29.70;;;6.30;;
36185;SDS011;22228;53.222;7.446;2023-02-23T15:24:47;39.00;;;7.43;;
36185;SDS011;22228;53.222;7.446;2023-02-23T15:27:17;35.13;;;7.50;;
36185;SDS011;22228;53.222;7.446;2023-02-23T15:29:43;29.67;;;8.07;;
36185;SDS011;22228;53.222;7.446;2023-02-23T15:32:11;41.47;;;7.53;;
36185;SDS011;22228;53.222;7.446;2023-02-23T15:34:36;28.07;;;6.87;;
36185;SDS011;22228;53.222;7.446;2023-02-23T15:36:57;28.00;;;6.87;;
36185;SDS011;22228;53.222;7.446;2023-02-23T15:39:31;33.27;;;6.37;;
36185;SDS011;22228;53.222;7.446;2023-02-23T15:41:56;45.53;;;9.13;;
36185;SDS011;22228;53.222;7.446;2023-02-23T15:44:19;34.77;;;6.50;;
36185;SDS011;22228;53.222;7.446;2023-02-23T15:46:41;30.07;;;6.03;;
36185;SDS011;22228;53.222;7.446;2023-02-23T15:49:08;21.23;;;5.73;;
36185;SDS011;22228;53.222;7.446;2023-02-23T15:51:33;30.27;;;5.13;;
36185;SDS011;22228;53.222;7.446;2023-02-23T15:53:56;26.57;;;6.47;;
36185;SDS011;22228;53.222;7.446;2023-02-23T15:56:19;37.17;;;8.80;;
36185;SDS011;22228;53.222;7.446;2023-02-23T15:58:46;31.47;;;4.80;;
36185;SDS011;22228;53.222;7.446;2023-02-23T16:01:10;18.30;;;4.80;;
36185;SDS011;22228;53.222;7.446;2023-02-23T16:03:38;20.73;;;4.57;;
36185;SDS011;22228;53.222;7.446;2023-02-23T16:06:02;26.63;;;6.63;;
36185;SDS011;22228;53.222;7.446;2023-02-23T16:08:25;30.63;;;6.00;;
36185;SDS011;22228;53.222;7.446;2023-02-23T16:10:48;26.77;;;5.97;;
36185;SDS011;22228;53.222;7.446;2023-02-23T16:13:11;23.10;;;4.30;;
36185;SDS011;22228;53.222;7.446;2023-02-23T16:15:34;20.07;;;4.27;;
36185;SDS011;22228;53.222;7.446;2023-02-23T16:17:58;17.50;;;4.40;;
36185;SDS011;22228;53.222;7.446;2023-02-23T16:20:22;18.63;;;4.23;;
36185;SDS011;22228;53.222;7.446;2023-02-23T16:22:51;17.67;;;4.00;;
36185;SDS011;22228;53.222;7.446;2023-02-23T16:25:13;16.13;;;3.50;;
36185;SDS011;22228;53.222;7.446;2023-02-23T16:27:35;25.37;;;4.17;;
36185;SDS011;22228;53.222;7.446;2023-02-23T16:29:58;19.33;;;3.50;;
36185;SDS011;22228;53.222;7.446;2023-02-23T16:32:24;20.87;;;4.83;;
36185;SDS011;22228;53.222;7.446;2023-02-23T16:34:55;22.40;;;5.63;;
36185;SDS011;22228;53.222;7.446;2023-02-23T16:37:21;21.83;;;4.37;;
36185;SDS011;22228;53.222;7.446;2023-02-23T16:39:45;23.10;;;4.17;;
36185;SDS011;22228;53.222;7.446;2023-02-23T16:42:22;13.57;;;3.90;;
36185;SDS011;22228;53.222;7.446;2023-02-23T16:44:44;24.20;;;4.13;;
36185;SDS011;22228;53.222;7.446;2023-02-23T16:47:25;20.07;;;3.77;;
36185;SDS011;22228;53.222;7.446;2023-02-23T16:52:41;18.77;;;4.77;;
36185;SDS011;22228;53.222;7.446;2023-02-23T16:55:03;16.27;;;2.97;;
36185;SDS011;22228;53.222;7.446;2023-02-23T16:57:25;15.70;;;3.63;;
36185;SDS011;22228;53.222;7.446;2023-02-23T16:59:48;18.23;;;3.60;;
36185;SDS011;22228;53.222;7.446;2023-02-23T17:02:10;10.73;;;2.70;;
36185;SDS011;22228;53.222;7.446;2023-02-23T17:04:32;13.97;;;3.40;;